Time;durP1;ratioP1;P1;durP2;ratioP2;P2;SDS_P1;SDS_P2;PMS_P1;PMS_P2;Temp;Humidity;BMP_temperature;BMP_pressure;BME280_temperature;BME280_humidity;BME280_pressure;Samples;Min_cycle;Max_cycle;Signal;HPM_P1;HPM_P2
2021/12/22 00:01:23;;;;;;;14.95;12.02;;;;;;;8.24;70.44;100868.56;4999187;28;20026;-76
2021/12/22 00:03:55;;;;;;;15.43;12.57;;;;;;;8.25;70.57;100878.50;4999919;28;20038;-74
2021/12/22 00:06:27;;;;;;;15.40;12.90;;;;;;;8.25;70.35;100872.16;5017180;28;20156;-75
2021/12/22 00:08:57;;;;;;;17.65;13.63;;;;;;;8.30;70.74;100874.75;5004382;28;20554;-75
2021/12/22 00:11:26;;;;;;;18.27;13.80;;;;;;;8.27;70.32;100876.25;5021712;28;20117;-75
2021/12/22 00:13:52;;;;;;;19.00;13.10;;;;;;;8.14;70.55;100860.59;5004950;28;20030;-74
2021/12/22 00:16:29;;;;;;;19.58;13.60;;;;;;;8.42;69.44;100882.44;5005772;28;20032;-75
2021/12/22 00:19:04;;;;;;;14.48;11.02;;;;;;;8.38;70.08;100883.09;5006411;28;20050;-75
2021/12/22 00:21:32;;;;;;;18.48;13.50;;;;;;;8.30;70.59;100883.88;5024409;28;20484;-75
2021/12/22 00:24:01;;;;;;;17.48;13.60;;;;;;;8.16;71.01;100874.97;5005189;28;20034;-75
2021/12/22 00:26:27;;;;;;;16.35;12.40;;;;;;;8.16;71.40;100885.25;5003922;28;20449;-75
2021/12/22 00:28:53;;;;;;;15.95;12.45;;;;;;;8.16;71.47;100891.59;5003212;28;20060;-75
2021/12/22 00:31:22;;;;;;;15.60;11.02;;;;;;;8.07;71.53;100877.75;5003951;28;20508;-75
2021/12/22 00:33:53;;;;;;;14.80;11.63;;;;;;;8.07;72.00;100882.47;5005044;28;20029;-75
2021/12/22 00:36:21;;;;;;;19.27;11.52;;;;;;;8.09;71.59;100888.50;5004482;28;20049;-75
2021/12/22 00:38:52;;;;;;;16.40;12.32;;;;;;;8.10;71.43;100890.16;5003055;28;20026;-75
2021/12/22 00:41:29;;;;;;;15.18;11.20;;;;;;;8.05;71.93;100879.22;5003938;28;20462;-75
2021/12/22 00:44:00;;;;;;;14.25;10.52;;;;;;;8.06;71.74;100886.41;5004504;28;20037;-76
2021/12/22 00:46:30;;;;;;;14.65;10.35;;;;;;;8.03;71.81;100881.50;5004744;28;20038;-75
2021/12/22 00:48:55;;;;;;;15.45;11.43;;;;;;;8.10;71.81;100881.84;5005196;28;20029;-75
2021/12/22 00:51:24;;;;;;;16.45;10.50;;;;;;;8.03;71.64;100887.03;5004603;28;20141;-75
2021/12/22 00:53:52;;;;;;;12.77;10.32;;;;;;;7.99;71.98;100881.38;5004537;28;20037;-75
2021/12/22 00:56:21;;;;;;;12.20;8.88;;;;;;;7.97;72.08;100883.63;5004584;28;20050;-75
2021/12/22 00:58:49;;;;;;;12.73;8.43;;;;;;;7.99;72.17;100880.53;5004602;28;20026;-75
2021/12/22 01:01:18;;;;;;;13.88;8.27;;;;;;;7.93;72.15;100884.63;5003378;28;20042;-75
2021/12/22 01:03:46;;;;;;;9.65;7.45;;;;;;;7.88;72.57;100880.88;5003139;28;20036;-75
2021/12/22 01:06:14;;;;;;;11.18;8.98;;;;;;;7.82;72.85;100876.63;5003907;28;20030;-75
2021/12/22 01:08:39;;;;;;;11.35;8.80;;;;;;;7.84;72.97;100884.63;5004765;28;20037;-75
2021/12/22 01:11:06;;;;;;;14.85;10.02;;;;;;;7.82;72.94;100884.94;5005268;28;20038;-76
2021/12/22 01:13:35;;;;;;;12.73;9.57;;;;;;;7.82;73.18;100886.91;5006324;28;20083;-75
2021/12/22 01:16:04;;;;;;;11.05;9.00;;;;;;;7.77;72.74;100882.34;5006224;28;20048;-76
2021/12/22 01:18:32;;;;;;;10.30;8.68;;;;;;;7.73;72.56;100867.53;5005282;28;20126;-75
2021/12/22 01:22:17;;;;;;;11.57;9.90;;;;;;;7.72;72.21;100885.28;5003409;28;20100;-76
2021/12/22 01:24:14;;;;;;;14.48;10.75;;;;;;;7.80;72.90;100887.25;5003515;28;20037;-76
2021/12/22 01:26:49;;;;;;;14.05;8.93;;;;;;;7.53;73.12;100884.81;5003306;28;20473;-75
2021/12/22 01:29:19;;;;;;;12.80;9.45;;;;;;;7.29;74.39;100893.56;5021064;28;20022;-76
2021/12/22 01:31:48;;;;;;;19.70;10.70;;;;;;;7.41;73.87;100890.19;5002106;28;20496;-76
2021/12/22 01:34:14;;;;;;;12.95;10.15;;;;;;;7.33;74.41;100889.00;5001083;28;20029;-76
2021/12/22 01:36:42;;;;;;;14.93;10.63;;;;;;;7.28;74.78;100881.69;5001043;28;20029;-76
2021/12/22 01:39:07;;;;;;;12.52;10.43;;;;;;;7.20;75.09;100871.44;5000524;28;20172;-76
2021/12/22 01:41:36;;;;;;;13.23;10.65;;;;;;;7.21;75.08;100875.81;5000722;28;20093;-76
2021/12/22 01:50:45;;;;;;;18.35;10.73;;;;;;;7.25;75.06;100885.13;5017950;28;20042;-76
2021/12/22 01:53:20;;;;;;;12.60;9.52;;;;;;;7.21;75.47;100878.59;4992617;28;20045;-76
2021/12/22 01:58:46;;;;;;;11.25;9.38;;;;;;;7.14;75.90;100874.66;5036966;28;20081;-76
2021/12/22 02:01:37;;;;;;;13.98;10.60;;;;;;;7.08;75.91;100880.38;5018901;28;20038;-76
2021/12/22 02:04:06;;;;;;;14.38;9.80;;;;;;;7.05;76.09;100874.66;5019916;28;20446;-76
2021/12/22 02:06:37;;;;;;;15.40;10.60;;;;;;;7.08;75.50;100865.69;5018121;28;20037;-77
2021/12/22 02:09:11;;;;;;;15.88;10.68;;;;;;;7.08;75.63;100869.28;5019487;28;20506;-76
2021/12/22 02:11:45;;;;;;;15.95;10.77;;;;;;;6.95;75.84;100853.63;5019993;28;20087;-76
2021/12/22 02:14:13;;;;;;;12.43;9.43;;;;;;;6.89;76.25;100854.91;5019769;28;20068;-76
2021/12/22 02:16:47;;;;;;;14.88;9.77;;;;;;;6.95;76.41;100852.81;5019451;28;20025;-75
2021/12/22 02:19:15;;;;;;;12.52;9.90;;;;;;;6.95;76.06;100847.28;5019715;28;20029;-76
2021/12/22 02:21:52;;;;;;;12.00;9.63;;;;;;;6.95;76.04;100852.81;5019701;28;20533;-76
2021/12/22 02:24:20;;;;;;;11.63;9.15;;;;;;;6.84;75.89;100846.78;5019543;28;20025;-76
2021/12/22 02:27:01;;;;;;;15.35;9.55;;;;;;;6.74;76.52;100847.88;5019690;28;20037;-76
2021/12/22 02:29:35;;;;;;;15.25;9.70;;;;;;;6.66;76.77;100843.16;5018532;28;20036;-76
2021/12/22 02:35:27;;;;;;;16.58;10.23;;;;;;;6.72;75.55;100850.16;5036758;28;20091;-76
2021/12/22 02:37:56;;;;;;;13.80;10.07;;;;;;;6.66;74.83;100845.91;5018854;28;20033;-76
2021/12/22 02:40:27;;;;;;;12.57;9.38;;;;;;;6.50;75.05;100842.78;5018690;28;20021;-76
2021/12/22 02:47:14;;;;;;;13.70;9.95;;;;;;;6.49;74.96;100843.06;5035789;28;20037;-76
2021/12/22 02:49:42;;;;;;;12.48;9.32;;;;;;;6.38;75.55;100841.72;5018975;28;20083;-76
2021/12/22 02:55:29;;;;;;;14.15;8.52;;;;;;;6.34;75.13;100844.31;5037235;28;20045;-76
2021/12/22 02:58:28;;;;;;;11.53;9.07;;;;;;;6.28;75.38;100840.88;5018140;28;20152;-76
2021/12/22 03:03:54;;;;;;;12.98;9.13;;;;;;;6.22;75.18;100830.25;5016869;28;20069;-76
2021/12/22 03:06:32;;;;;;;12.75;9.57;;;;;;;6.25;75.61;100847.03;4999168;28;20032;-76
2021/12/22 03:12:46;;;;;;;12.35;8.25;;;;;;;6.20;74.75;100844.41;5016654;28;20535;-76
2021/12/22 03:15:42;;;;;;;11.90;9.18;;;;;;;6.20;73.83;100849.13;5017110;28;20041;-76
2021/12/22 03:18:07;;;;;;;11.88;8.82;;;;;;;6.15;74.11;100846.50;4999493;28;20040;-76
2021/12/22 03:20:36;;;;;;;10.32;8.95;;;;;;;6.10;74.42;100841.91;4999366;28;20116;-76
2021/12/22 03:23:02;;;;;;;18.92;12.25;;;;;;;6.10;74.61;100850.19;5017124;28;20022;-76
2021/12/22 03:25:31;;;;;;;19.35;12.63;;;;;;;6.07;73.83;100845.31;4999120;28;20025;-76
2021/12/22 03:31:02;;;;;;;14.48;12.43;;;;;;;6.00;74.60;100842.19;5016290;28;20042;-76
2021/12/22 03:33:31;;;;;;;18.38;11.65;;;;;;;6.02;74.68;100839.94;4999196;28;20040;-76
2021/12/22 03:36:24;;;;;;;11.05;8.60;;;;;;;6.09;73.03;100847.78;4999193;28;20029;-76
2021/12/22 03:38:49;;;;;;;9.40;8.27;;;;;;;6.06;72.64;100846.44;4999386;28;20026;-76
2021/12/22 03:41:18;;;;;;;11.77;9.52;;;;;;;5.98;73.67;100841.69;4999180;28;20048;-76
2021/12/22 03:43:53;;;;;;;10.02;7.90;;;;;;;5.94;73.18;100846.22;5000113;28;20392;-76
2021/12/22 03:46:18;;;;;;;9.98;6.85;;;;;;;5.97;72.62;100840.06;5000583;28;20036;-76
2021/12/22 03:48:47;;;;;;;9.38;7.10;;;;;;;6.04;71.01;100838.47;5000984;28;20034;-76
2021/12/22 03:52:01;;;;;;;9.55;7.03;;;;;;;5.92;70.88;100838.25;5001979;28;20026;-76
2021/12/22 03:54:32;;;;;;;9.93;5.23;;;;;;;5.99;69.79;100838.59;4998429;28;20034;-76
2021/12/22 03:57:18;;;;;;;8.38;5.97;;;;;;;5.97;70.12;100837.31;4996990;28;20312;-76
2021/12/22 03:59:46;;;;;;;7.35;5.68;;;;;;;5.93;70.39;100836.28;4996682;28;20038;-76
2021/12/22 04:02:12;;;;;;;6.80;5.82;;;;;;;5.91;69.63;100836.63;4997447;28;20034;-76
2021/12/22 04:08:27;;;;;;;7.60;5.07;;;;;;;5.91;70.17;100841.28;5014701;28;20037;-76
2021/12/22 04:10:54;;;;;;;6.78;5.97;;;;;;;5.91;70.00;100831.09;4997197;28;20112;-76
2021/12/22 04:13:20;;;;;;;6.97;5.72;;;;;;;5.94;69.99;100832.41;4997885;28;20420;-76
2021/12/22 04:16:08;;;;;;;9.18;6.80;;;;;;;5.91;69.88;100842.16;4997289;28;20069;-76
2021/12/22 04:18:37;;;;;;;8.38;7.10;;;;;;;5.90;70.58;100842.41;4997076;28;20036;-76
2021/12/22 04:21:14;;;;;;;10.15;7.88;;;;;;;5.88;70.50;100836.41;4997277;28;20033;-76
2021/12/22 04:23:46;;;;;;;12.48;7.90;;;;;;;5.84;71.03;100836.19;4997969;28;20030;-77
2021/12/22 04:26:39;;;;;;;11.57;8.43;;;;;;;5.98;70.04;100847.22;4997001;28;20034;-76
2021/12/22 04:29:11;;;;;;;12.95;9.07;;;;;;;5.97;70.36;100842.81;4997642;28;20350;-76
2021/12/22 04:31:45;;;;;;;12.18;10.07;;;;;;;5.96;70.41;100843.94;4997159;28;20034;-77
2021/12/22 04:34:16;;;;;;;10.70;9.00;;;;;;;5.88;70.99;100839.16;4996670;28;20029;-76
2021/12/22 04:40:26;;;;;;;12.02;8.80;;;;;;;5.88;71.49;100841.91;4936575;28;20051;-76
2021/12/22 04:42:55;;;;;;;9.23;8.07;;;;;;;5.87;71.55;100845.81;4934920;29;20118;-76
2021/12/22 04:45:21;;;;;;;10.50;7.45;;;;;;;5.87;71.87;100852.16;5005502;28;20041;-76
2021/12/22 04:48:02;;;;;;;11.60;9.73;;;;;;;5.88;71.71;100852.97;4997748;28;20026;-76
2021/12/22 04:50:33;;;;;;;11.88;8.82;;;;;;;5.87;71.26;100851.34;5014408;28;20469;-77
2021/12/22 04:53:40;;;;;;;9.02;8.13;;;;;;;5.89;71.05;100852.66;5016046;28;20037;-77
2021/12/22 04:56:06;;;;;;;11.85;10.05;;;;;;;5.93;71.28;100858.41;5000460;28;20065;-75
2021/12/22 04:59:12;;;;;;;11.30;8.82;;;;;;;5.86;69.99;100847.78;5000860;28;20025;-76
2021/12/22 05:01:38;;;;;;;9.30;7.93;;;;;;;5.82;70.47;100848.72;5000106;28;20651;-77
2021/12/22 05:04:03;;;;;;;8.23;7.20;;;;;;;5.80;70.97;100851.75;5001135;28;20086;-77
2021/12/22 05:06:57;;;;;;;7.07;5.53;;;;;;;5.76;71.64;100854.34;5001244;28;20128;-77
2021/12/22 05:09:31;;;;;;;9.65;7.20;;;;;;;5.79;72.09;100850.94;5000660;28;20531;-77
2021/12/22 05:12:23;;;;;;;9.32;8.25;;;;;;;5.90;71.49;100856.22;5018489;28;20084;-77
2021/12/22 05:14:52;;;;;;;9.15;7.20;;;;;;;5.84;70.86;100858.28;5001028;28;20026;-77
2021/12/22 05:17:37;;;;;;;9.10;6.53;;;;;;;5.83;71.37;100855.84;5018684;28;20034;-77
2021/12/22 05:20:10;;;;;;;7.65;5.40;;;;;;;5.86;71.20;100860.72;5018450;28;20026;-77
2021/12/22 05:22:38;;;;;;;7.22;5.57;;;;;;;5.84;71.96;100863.81;5001202;28;20040;-77
2021/12/22 05:25:41;;;;;;;7.20;5.38;;;;;;;5.90;71.63;100867.28;5000504;28;20025;-76
2021/12/22 05:28:06;;;;;;;6.60;5.88;;;;;;;5.89;72.72;100865.66;5001336;28;20483;-77
2021/12/22 05:31:18;;;;;;;7.97;6.45;;;;;;;5.96;72.42;100871.56;5000516;28;20030;-77
2021/12/22 05:33:43;;;;;;;8.75;5.55;;;;;;;5.97;72.08;100867.69;5001548;28;20082;-77
2021/12/22 05:36:16;;;;;;;7.18;5.63;;;;;;;6.07;72.18;100875.69;5001093;28;20548;-77
2021/12/22 05:38:42;;;;;;;9.30;5.30;;;;;;;6.07;72.00;100881.22;5002499;28;20049;-76
2021/12/22 05:41:13;;;;;;;8.35;5.90;;;;;;;6.08;72.04;100869.06;5001518;28;20072;-76
2021/12/22 05:43:42;;;;;;;6.65;5.40;;;;;;;6.09;72.02;100873.44;5001651;28;20033;-77
2021/12/22 05:46:28;;;;;;;11.48;6.43;;;;;;;6.14;72.18;100876.06;5001672;28;20034;-77
2021/12/22 05:48:56;;;;;;;7.47;6.07;;;;;;;6.18;71.84;100874.31;5000014;28;20034;-77
2021/12/22 05:51:28;;;;;;;6.50;5.18;;;;;;;6.27;71.59;100871.59;5000826;28;20034;-77
2021/12/22 05:53:56;;;;;;;7.85;6.07;;;;;;;6.25;71.58;100873.84;5000429;28;20033;-77
2021/12/22 05:56:42;;;;;;;10.15;5.68;;;;;;;6.26;71.20;100870.78;5001308;28;20054;-77
2021/12/22 05:59:10;;;;;;;7.00;5.60;;;;;;;6.26;71.08;100870.78;4999882;28;20038;-76
2021/12/22 06:01:38;;;;;;;5.57;4.93;;;;;;;6.32;71.35;100876.97;5001044;28;20068;-76
2021/12/22 06:04:23;;;;;;;6.97;5.65;;;;;;;6.34;70.86;100884.94;5000407;28;20045;-76
2021/12/22 06:06:52;;;;;;;5.07;4.57;;;;;;;6.35;71.17;100878.31;5001716;28;20036;-76
2021/12/22 06:09:17;;;;;;;5.95;5.28;;;;;;;6.34;70.59;100882.19;5001990;28;20030;-75
2021/12/22 06:15:14;;;;;;;9.82;5.35;;;;;;;6.36;70.82;100886.28;5018246;28;20042;-77
2021/12/22 06:17:43;;;;;;;6.20;5.60;;;;;;;6.40;71.18;100895.56;5001766;28;20026;-76
2021/12/22 06:20:49;;;;;;;8.82;5.28;;;;;;;6.41;70.73;100894.44;5002749;28;20109;-77
2021/12/22 06:23:18;;;;;;;8.15;5.72;;;;;;;6.41;70.60;100899.16;5003662;28;20049;-78
2021/12/22 06:26:15;;;;;;;10.02;7.20;;;;;;;6.40;70.85;100903.88;5003853;28;20038;-76
2021/12/22 06:28:46;;;;;;;10.95;9.68;;;;;;;6.40;71.19;100892.81;5002169;28;20381;-76
2021/12/22 06:31:20;;;;;;;16.40;9.60;;;;;;;6.41;70.35;100891.66;4999736;28;20061;-76
2021/12/22 06:33:48;;;;;;;11.13;8.60;;;;;;;6.42;70.70;100896.06;4998729;28;20038;-77
2021/12/22 06:36:17;;;;;;;10.75;9.05;;;;;;;6.49;70.50;100906.66;4999172;28;20030;-77
2021/12/22 06:38:55;;;;;;;19.15;10.07;;;;;;;6.69;70.35;100900.56;4999222;28;20120;-77
2021/12/22 06:41:49;;;;;;;22.08;17.25;;;;;;;7.31;68.68;100897.66;4999306;28;20555;-76
2021/12/22 06:44:17;;;;;;;23.08;19.35;;;;;;;7.81;66.39;100908.25;4998625;28;20076;-77
2021/12/22 06:46:43;;;;;;;29.08;20.08;;;;;;;8.30;65.27;100905.25;4999262;28;20481;-76
2021/12/22 06:49:13;;;;;;;27.33;19.60;;;;;;;8.72;62.48;100903.50;4998479;28;20171;-77
2021/12/22 06:51:51;;;;;;;17.58;13.88;;;;;;;9.13;61.12;100904.78;4998217;28;20115;-77
2021/12/22 06:54:19;;;;;;;14.50;11.35;;;;;;;9.11;59.89;100904.31;4998870;28;20053;-75
2021/12/22 06:56:47;;;;;;;12.60;10.43;;;;;;;9.41;60.48;100907.88;4999419;28;20042;-75
2021/12/22 06:59:19;;;;;;;13.52;10.32;;;;;;;9.95;58.41;100905.94;4998673;28;20026;-75
2021/12/22 07:01:51;;;;;;;15.82;8.48;;;;;;;9.79;58.43;100906.91;5000750;28;20147;-75
2021/12/22 07:04:23;;;;;;;20.60;11.85;;;;;;;9.51;57.55;100906.66;5000469;28;20026;-75
2021/12/22 07:06:52;;;;;;;18.35;12.52;;;;;;;9.43;60.01;100909.19;4999981;28;20037;-75
2021/12/22 07:09:18;;;;;;;23.83;14.23;;;;;;;10.04;58.80;100913.41;5002548;28;20057;-75
2021/12/22 07:11:46;;;;;;;19.25;14.55;;;;;;;10.69;56.58;100914.53;5001043;28;20025;-75
2021/12/22 07:14:15;;;;;;;21.70;17.08;;;;;;;11.45;54.93;100913.84;5001039;28;20038;-75
2021/12/22 07:16:44;;;;;;;23.73;17.33;;;;;;;12.13;51.74;100912.25;5000810;28;20034;-74
2021/12/22 07:19:10;;;;;;;22.58;15.45;;;;;;;12.46;50.84;100912.78;5017248;28;20113;-77
2021/12/22 07:21:41;;;;;;;23.83;15.27;;;;;;;13.10;49.95;100908.84;5000219;28;20061;-76
2021/12/22 07:24:10;;;;;;;16.63;12.50;;;;;;;13.57;48.48;100910.72;4999745;28;20036;-77
2021/12/22 07:26:39;;;;;;;16.67;13.25;;;;;;;13.82;46.60;100913.28;5000075;28;20396;-75
2021/12/22 07:29:09;;;;;;;21.58;16.05;;;;;;;13.72;44.87;100919.44;4999531;28;20469;-77
2021/12/22 07:31:41;;;;;;;24.38;19.52;;;;;;;13.75;46.24;100918.72;4999653;28;20034;-77
2021/12/22 07:34:23;;;;;;;26.92;20.58;;;;;;;14.14;44.34;100908.31;5017258;28;20037;-75
2021/12/22 07:37:06;;;;;;;27.90;20.55;;;;;;;14.65;43.52;100917.34;4999429;28;20049;-75
2021/12/22 07:39:37;;;;;;;26.27;19.75;;;;;;;14.78;42.82;100914.34;5000323;28;20034;-74
2021/12/22 07:42:09;;;;;;;24.65;18.00;;;;;;;14.89;44.18;100913.34;4998532;28;20063;-75
2021/12/22 07:44:40;;;;;;;20.70;17.00;;;;;;;15.30;43.34;100921.22;4997937;28;20124;-74
2021/12/22 07:47:12;;;;;;;22.00;17.48;;;;;;;14.89;43.61;100920.94;4996484;28;20030;-75
2021/12/22 07:49:40;;;;;;;20.95;16.10;;;;;;;14.78;44.24;100925.56;4998121;28;20044;-75
2021/12/22 07:52:09;;;;;;;22.70;16.83;;;;;;;14.88;44.47;100930.53;4999751;28;20125;-76
2021/12/22 07:54:39;;;;;;;36.05;17.05;;;;;;;15.46;42.85;100938.69;4999253;28;20054;-76
2021/12/22 07:57:10;;;;;;;24.80;15.70;;;;;;;15.89;42.97;100937.31;4996365;28;20121;-75
2021/12/22 07:59:38;;;;;;;23.80;14.38;;;;;;;16.00;42.79;100934.63;4995996;28;20129;-76
2021/12/22 08:02:04;;;;;;;16.40;11.40;;;;;;;16.28;41.01;100933.34;4995972;28;20030;-77
2021/12/22 08:04:32;;;;;;;20.00;14.45;;;;;;;16.05;40.79;100928.69;4996324;28;20026;-75
2021/12/22 08:07:01;;;;;;;15.23;11.60;;;;;;;16.61;40.09;100936.13;4996522;28;20175;-75
2021/12/22 08:09:34;;;;;;;15.73;9.52;;;;;;;16.41;38.62;100923.50;4995878;28;20060;-78
2021/12/22 08:12:04;;;;;;;14.02;9.32;;;;;;;16.43;39.64;100947.19;5013766;28;20037;-76
2021/12/22 08:14:36;;;;;;;11.65;8.52;;;;;;;16.74;38.77;100945.13;5014156;28;20029;-77
2021/12/22 08:17:05;;;;;;;7.93;6.50;;;;;;;17.09;38.13;100938.19;4995871;28;20073;-77
2021/12/22 08:19:34;;;;;;;9.98;7.55;;;;;;;16.99;38.54;100945.34;4996123;28;20453;-76
2021/12/22 08:22:02;;;;;;;15.45;8.02;;;;;;;16.89;37.47;100940.47;4996017;28;20029;-77
2021/12/22 08:24:31;;;;;;;11.00;8.82;;;;;;;16.70;38.51;100945.06;4995660;28;20469;-75
2021/12/22 08:26:59;;;;;;;10.05;8.27;;;;;;;17.12;36.52;100943.88;4995771;28;20538;-76
2021/12/22 08:29:25;;;;;;;12.52;8.68;;;;;;;17.58;36.65;100943.41;4999285;28;20073;-77
2021/12/22 08:31:54;;;;;;;10.45;7.68;;;;;;;17.76;35.38;100949.16;4999376;28;20090;-75
2021/12/22 08:34:34;;;;;;;7.90;6.85;;;;;;;17.93;35.53;100954.06;4999511;28;20029;-77
2021/12/22 08:39:44;;;;;;;5.20;4.70;;;;;;;18.01;34.41;100954.94;5017081;28;20044;-77
2021/12/22 08:42:12;;;;;;;9.45;4.95;;;;;;;18.24;33.88;100957.44;4999404;28;20030;-73
2021/12/22 08:44:41;;;;;;;7.15;5.78;;;;;;;18.00;32.33;100958.94;4999587;28;20488;-77
2021/12/22 08:47:12;;;;;;;7.53;5.25;;;;;;;18.33;33.85;100967.13;4999606;28;20038;-76
2021/12/22 08:49:42;;;;;;;15.48;13.05;;;;;;;17.60;35.01;100971.16;5016592;28;20426;-76
2021/12/22 08:52:13;;;;;;;13.18;10.68;;;;;;;17.08;35.16;100971.13;4999159;28;20030;-76
2021/12/22 08:54:42;;;;;;;20.10;15.10;;;;;;;17.01;36.54;100977.50;4999415;28;20088;-78
2021/12/22 08:57:10;;;;;;;8.70;6.55;;;;;;;17.20;34.91;100973.63;4998843;28;20049;-77
2021/12/22 08:59:43;;;;;;;10.57;7.25;;;;;;;17.41;34.80;100960.94;5016457;28;20036;-77
2021/12/22 09:02:13;;;;;;;17.67;11.67;;;;;;;16.78;35.99;100943.16;5013935;28;20042;-77
2021/12/22 09:04:44;;;;;;;14.20;10.68;;;;;;;16.42;38.85;100972.84;4999472;28;20287;-77
2021/12/22 09:07:16;;;;;;;18.23;10.63;;;;;;;16.52;36.57;100976.97;4998839;28;20022;-77
2021/12/22 09:09:41;;;;;;;15.13;10.68;;;;;;;16.38;37.85;100981.22;4998843;28;20026;-77
2021/12/22 09:12:08;;;;;;;13.20;7.75;;;;;;;16.34;37.58;100976.75;4999035;28;20038;-77
2021/12/22 09:14:37;;;;;;;12.43;8.85;;;;;;;16.49;36.78;100973.72;5016203;28;20030;-76
2021/12/22 09:17:05;;;;;;;9.32;6.65;;;;;;;16.09;37.04;100971.66;4998793;28;20066;-77
2021/12/22 09:19:36;;;;;;;7.28;4.88;;;;;;;15.93;37.16;100982.25;4999210;28;20041;-78
2021/12/22 09:22:05;;;;;;;6.90;6.22;;;;;;;15.27;39.04;100969.59;4999131;28;20380;-77
2021/12/22 09:24:36;;;;;;;7.65;6.93;;;;;;;16.25;37.30;100979.88;4999060;28;20095;-78
2021/12/22 09:27:08;;;;;;;10.88;9.77;;;;;;;16.39;37.66;100979.22;4998589;28;20060;-77
2021/12/22 09:29:37;;;;;;;8.00;6.32;;;;;;;16.05;37.98;100978.41;4998499;28;20128;-76
2021/12/22 09:32:07;;;;;;;7.75;6.47;;;;;;;15.26;39.50;100979.22;4999157;28;20373;-78
2021/12/22 09:34:42;;;;;;;7.85;6.60;;;;;;;15.01;39.74;100973.97;5016166;28;20045;-75
2021/12/22 09:37:11;;;;;;;9.52;8.05;;;;;;;15.34;39.34;100976.16;4999113;28;20049;-77
2021/12/22 09:39:46;;;;;;;8.35;7.15;;;;;;;16.03;37.93;100972.34;4998380;28;20045;-76
2021/12/22 09:42:14;;;;;;;13.32;8.38;;;;;;;16.27;38.19;100965.44;4998962;28;20030;-78
2021/12/22 09:44:46;;;;;;;8.13;7.32;;;;;;;16.72;36.84;100964.34;4998101;28;20045;-77
2021/12/22 09:47:27;;;;;;;7.10;5.22;;;;;;;16.49;36.44;100967.31;4998444;28;20132;-76
2021/12/22 09:50:38;;;;;;;6.03;5.40;;;;;;;16.43;36.81;100971.66;4997964;28;20137;-75
2021/12/22 09:52:47;;;;;;;7.20;5.80;;;;;;;17.25;34.94;100959.22;5012534;28;20026;-77
2021/12/22 09:55:19;;;;;;;5.13;4.63;;;;;;;16.72;35.92;100965.19;4998499;28;20116;-77
2021/12/22 09:57:48;;;;;;;5.30;4.80;;;;;;;16.99;35.88;100956.59;5015485;28;20058;-78
2021/12/22 10:00:17;;;;;;;7.13;4.45;;;;;;;16.52;36.45;100958.13;4997929;28;20026;-77
2021/12/22 10:02:54;;;;;;;5.93;3.83;;;;;;;16.47;35.93;100964.09;5015887;28;20140;-75
2021/12/22 10:05:22;;;;;;;6.13;4.15;;;;;;;15.98;36.28;100953.88;5015465;28;20108;-78
2021/12/22 10:08:09;;;;;;;7.55;5.75;;;;;;;15.20;38.47;100959.91;4998515;28;20142;-77
2021/12/22 10:10:45;;;;;;;5.93;4.63;;;;;;;15.30;37.98;100955.66;5022395;28;20393;-78
2021/12/22 10:13:16;;;;;;;10.88;8.05;;;;;;;15.36;39.43;100950.53;5022647;28;20500;-77
2021/12/22 10:15:47;;;;;;;7.18;6.30;;;;;;;15.13;38.99;100945.78;5000523;28;20026;-76
2021/12/22 10:18:20;;;;;;;8.43;6.63;;;;;;;14.90;40.04;100944.97;5001851;28;20038;-77
2021/12/22 10:20:49;;;;;;;9.43;6.72;;;;;;;14.72;39.86;100938.25;5002120;28;20026;-75
2021/12/22 10:23:22;;;;;;;8.38;5.95;;;;;;;14.39;40.16;100936.81;5001076;28;20096;-75
2021/12/22 10:26:06;;;;;;;6.72;5.70;;;;;;;14.78;39.62;100919.94;4998814;28;20032;-76
2021/12/22 10:28:52;;;;;;;;;;;;;;;14.88;39.31;100938.94;5015842;28;20034;-77
2021/12/22 10:31:21;;;;;;;10.50;7.18;;;;;;;14.74;39.36;100930.28;4980562;28;19917;-76
2021/12/22 10:33:48;;;;;;;8.20;7.15;;;;;;;14.56;39.84;100925.16;5015765;28;20491;-77
2021/12/22 10:36:23;;;;;;;13.02;8.45;;;;;;;14.44;40.40;100933.72;5002588;28;20134;-77
2021/12/22 10:38:51;;;;;;;8.23;6.53;;;;;;;14.27;40.04;100922.97;5016959;28;20034;-77
2021/12/22 10:41:17;;;;;;;10.23;7.32;;;;;;;14.13;39.87;100918.72;4997393;28;20369;-76
2021/12/22 10:43:49;;;;;;;8.23;6.28;;;;;;;14.22;39.68;100920.47;4997482;28;20484;-76
2021/12/22 10:46:32;;;;;;;12.02;7.00;;;;;;;14.16;40.03;100915.16;4996929;28;20182;-75
2021/12/22 10:49:20;;;;;;;11.40;6.63;;;;;;;14.46;38.85;100917.34;5015046;28;20026;-78
2021/12/22 10:52:00;;;;;;;9.23;6.68;;;;;;;14.39;38.50;100908.81;4996352;28;20025;-78
2021/12/22 10:55:08;;;;;;;8.27;5.90;;;;;;;14.41;38.83;100909.25;4996707;28;20026;-76
2021/12/22 10:57:45;;;;;;;7.93;5.97;;;;;;;14.57;38.44;100892.38;5014647;28;20049;-76
2021/12/22 11:00:25;;;;;;;8.55;7.32;;;;;;;14.66;38.98;100896.56;4996805;28;20025;-77
2021/12/22 11:03:09;;;;;;;8.50;6.13;;;;;;;14.89;39.52;100904.94;5014584;28;20029;-77
2021/12/22 11:05:49;;;;;;;8.00;6.43;;;;;;;15.04;39.34;100900.38;4996662;28;20026;-76
2021/12/22 11:08:27;;;;;;;7.88;6.07;;;;;;;15.09;39.28;100897.25;5014269;28;20065;-77
2021/12/22 11:10:56;;;;;;;8.68;6.03;;;;;;;14.86;38.80;100899.25;4997088;28;20030;-77
2021/12/22 11:13:29;;;;;;;9.65;6.20;;;;;;;15.03;39.09;100893.16;4996808;28;20029;-77
2021/12/22 11:15:58;;;;;;;7.82;5.70;;;;;;;15.17;38.36;100898.97;4997226;28;20492;-79
2021/12/22 11:18:34;;;;;;;8.52;6.22;;;;;;;15.13;38.55;100898.13;4996672;28;20041;-77
2021/12/22 11:21:19;;;;;;;7.60;6.20;;;;;;;15.13;38.73;100895.31;4996752;28;20476;-77
2021/12/22 11:23:47;;;;;;;8.90;6.18;;;;;;;15.06;38.54;100884.00;5014186;28;20037;-76
2021/12/22 11:26:16;;;;;;;8.88;6.75;;;;;;;15.13;37.96;100889.72;4997070;28;20148;-77
2021/12/22 11:28:47;;;;;;;9.93;7.10;;;;;;;15.20;38.14;100892.63;4996681;28;20064;-75
2021/12/22 11:31:16;;;;;;;8.80;7.15;;;;;;;15.24;37.14;100892.69;4996297;28;20037;-76
2021/12/22 11:33:47;;;;;;;8.52;7.22;;;;;;;14.98;36.62;100890.69;4996829;28;20384;-76
2021/12/22 11:36:16;;;;;;;9.73;7.47;;;;;;;15.36;37.03;100886.84;4996500;28;20457;-75
2021/12/22 11:38:42;;;;;;;9.10;7.00;;;;;;;15.54;37.12;100884.28;4996225;28;20029;-76
2021/12/22 11:41:16;;;;;;;11.60;7.60;;;;;;;15.63;37.52;100887.66;4996064;28;20028;-75
2021/12/22 11:43:48;;;;;;;8.80;7.38;;;;;;;15.60;37.21;100865.94;5013358;28;20105;-75
2021/12/22 11:46:17;;;;;;;16.25;11.43;;;;;;;15.55;35.69;100885.91;4996212;28;20049;-76
2021/12/22 11:48:49;;;;;;;9.60;6.95;;;;;;;15.70;35.82;100882.13;5014299;28;20030;-76
2021/12/22 11:51:31;;;;;;;10.52;6.95;;;;;;;15.66;36.30;100889.72;4996410;28;20038;-77
2021/12/22 11:54:09;;;;;;;6.80;5.80;;;;;;;15.45;34.90;100886.59;4996280;28;20033;-78
2021/12/22 11:56:40;;;;;;;7.35;5.30;;;;;;;15.36;34.72;100844.00;4996116;28;20088;-78
2021/12/22 11:59:23;;;;;;;33.60;23.98;;;;;;;15.45;40.68;100876.19;4997155;28;20029;-77
2021/12/22 12:02:21;;;;;;;27.13;21.38;;;;;;;14.94;42.37;100867.38;5018062;28;20030;-75
2021/12/22 12:05:11;;;;;;;20.27;16.25;;;;;;;14.89;40.92;100867.69;5003484;28;20022;-76
2021/12/22 12:07:52;;;;;;;17.70;14.07;;;;;;;14.91;39.37;100862.53;5004271;28;20045;-76
2021/12/22 12:10:32;;;;;;;30.83;24.73;;;;;;;14.70;44.43;100867.78;5005436;28;20022;-77
2021/12/22 12:22:33;;;;;;;35.28;25.05;;;;;;;13.84;47.20;100863.34;5023076;28;20175;-75
2021/12/22 12:25:11;;;;;;;35.65;26.88;;;;;;;13.79;46.88;100858.84;5005973;28;20034;-77
2021/12/22 12:27:47;;;;;;;47.45;30.65;;;;;;;13.70;46.64;100852.69;5005808;28;20026;-75
2021/12/22 12:30:25;;;;;;;36.22;25.55;;;;;;;13.69;45.56;100848.28;5005941;28;20544;-76
2021/12/22 12:32:50;;;;;;;30.65;22.05;;;;;;;13.84;45.69;100860.56;5005214;28;20093;-76
2021/12/22 12:35:26;;;;;;;26.55;19.67;;;;;;;13.85;46.68;100853.81;5007174;28;20491;-76
2021/12/22 12:38:04;;;;;;;28.67;20.67;;;;;;;13.83;45.32;100854.16;5007189;28;20045;-77
2021/12/22 12:41:11;;;;;;;28.00;17.33;;;;;;;13.84;44.66;100852.16;5005634;28;20042;-77
2021/12/22 12:43:44;;;;;;;20.05;15.63;;;;;;;13.75;43.44;100851.59;4984526;28;20515;-76